Time;durP1;ratioP1;P1;durP2;ratioP2;P2;SDS_P1;SDS_P2;PMS_P1;PMS_P2;Temp;Humidity;BMP_temperature;BMP_pressure;BME280_temperature;BME280_humidity;BME280_pressure;Samples;Min_cycle;Max_cycle;Signal;HPM_P1;HPM_P2
2022/11/10 00:01:08;;;;;;;3.88;3.03;;;16.40;96.70;;;;;;4874007;29;20089;-74
2022/11/10 00:03:56;;;;;;;5.45;3.53;;;16.40;96.70;;;;;;4867248;29;20178;-74
2022/11/10 00:06:45;;;;;;;5.28;2.88;;;16.50;96.70;;;;;;4861983;29;20160;-73
2022/11/10 00:09:31;;;;;;;4.50;3.08;;;16.50;96.70;;;;;;4871270;29;20131;-73
2022/11/10 00:12:18;;;;;;;3.75;2.75;;;16.40;96.70;;;;;;4873008;29;20549;-73
2022/11/10 00:18:12;;;;;;;4.75;3.17;;;16.30;96.70;;;;;;4869118;29;20068;-74
2022/11/10 00:21:03;;;;;;;4.55;3.22;;;16.30;96.70;;;;;;4872396;29;20124;-74
2022/11/10 00:23:49;;;;;;;5.43;3.10;;;16.30;96.70;;;;;;4874804;29;20056;-74
2022/11/10 00:26:35;;;;;;;3.83;2.83;;;16.30;96.70;;;;;;4876218;29;20062;-74
2022/11/10 00:29:22;;;;;;;5.55;3.15;;;16.20;96.70;;;;;;4872267;29;20063;-74
2022/11/10 00:32:09;;;;;;;;;;;16.20;96.70;;;;;;4873955;29;20172;-74
2022/11/10 00:34:57;;;;;;;4.05;3.20;;;16.20;96.70;;;;;;4867748;29;20410;-74
2022/11/10 00:37:43;;;;;;;4.47;2.70;;;16.20;96.70;;;;;;4868531;29;20212;-73
2022/11/10 00:40:30;;;;;;;4.05;3.08;;;16.20;96.70;;;;;;4877397;29;20062;-73
2022/11/10 00:43:16;;;;;;;3.47;2.78;;;16.20;96.70;;;;;;4873426;29;20058;-74
2022/11/10 00:46:10;;;;;;;6.07;2.85;;;16.20;96.70;;;;;;4874942;29;20569;-74
2022/11/10 00:48:56;;;;;;;5.80;2.92;;;16.30;96.70;;;;;;4858301;29;20255;-74
2022/11/10 00:51:44;;;;;;;5.15;3.03;;;16.30;96.70;;;;;;4873976;29;20235;-75
2022/11/10 00:54:30;;;;;;;5.47;2.47;;;16.30;96.70;;;;;;4862325;29;20124;-74
2022/11/10 00:57:17;;;;;;;4.07;2.50;;;16.30;96.70;;;;;;4868652;29;20571;-75
2022/11/10 01:00:04;;;;;;;4.65;2.60;;;16.30;96.70;;;;;;4877593;29;20375;-75
2022/11/10 01:02:57;;;;;;;3.85;2.28;;;16.30;96.70;;;;;;4857668;29;20059;-74
2022/11/10 01:05:44;;;;;;;3.33;2.47;;;16.30;96.70;;;;;;4872040;29;20517;-74
2022/11/10 01:08:31;;;;;;;;;;;16.30;96.70;;;;;;4873663;29;20370;-74
2022/11/10 01:11:22;;;;;;;5.15;2.90;;;16.30;96.70;;;;;;4868225;29;19934;-74
2022/11/10 01:14:08;;;;;;;3.88;2.47;;;16.30;96.70;;;;;;4875493;29;20417;-75
2022/11/10 01:16:55;;;;;;;5.18;2.30;;;16.30;96.70;;;;;;4856913;29;20123;-74
2022/11/10 01:19:41;;;;;;;4.78;3.10;;;16.30;96.70;;;;;;4868262;29;20430;-74
2022/11/10 01:22:28;;;;;;;4.47;2.92;;;16.40;96.70;;;;;;4866269;29;20616;-74
2022/11/10 01:25:16;;;;;;;6.25;3.38;;;16.40;96.70;;;;;;4865062;29;20063;-75
2022/11/10 01:28:02;;;;;;;5.22;3.33;;;16.40;96.70;;;;;;4864020;29;20193;-74
2022/11/10 01:30:49;;;;;;;3.95;3.05;;;16.40;96.70;;;;;;4867537;29;20184;-74
2022/11/10 01:33:36;;;;;;;5.40;3.05;;;16.40;96.70;;;;;;4871982;29;20127;-74
2022/11/10 01:36:23;;;;;;;4.68;2.70;;;16.40;96.70;;;;;;4871422;29;20064;-75
2022/11/10 01:39:09;;;;;;;5.63;2.80;;;16.40;96.70;;;;;;4867094;29;20109;-74
2022/11/10 01:41:57;;;;;;;3.50;2.55;;;16.40;96.70;;;;;;4864443;29;20635;-75
2022/11/10 01:45:35;;;;;;;5.60;2.95;;;16.40;96.70;;;;;;4868823;29;20064;-75
2022/11/10 01:48:29;;;;;;;5.55;2.45;;;16.40;96.70;;;;;;4866947;29;20188;-74
2022/11/10 01:51:20;;;;;;;3.20;2.75;;;16.40;96.70;;;;;;4878374;29;20533;-74
2022/11/10 01:54:09;;;;;;;4.68;2.58;;;16.40;96.70;;;;;;4867635;29;20142;-75
2022/11/10 01:57:01;;;;;;;4.00;2.70;;;16.40;96.70;;;;;;4873925;29;20518;-75
2022/11/10 01:59:48;;;;;;;4.57;2.58;;;16.40;96.70;;;;;;4869632;29;20056;-74
2022/11/10 02:02:47;;;;;;;4.60;2.45;;;16.50;96.70;;;;;;4861570;29;20544;-74
2022/11/10 02:05:35;;;;;;;5.65;2.80;;;16.40;96.70;;;;;;4850351;29;20056;-75
2022/11/10 02:08:22;;;;;;;3.85;2.30;;;16.40;96.70;;;;;;4866095;29;20080;-75
2022/11/10 02:11:09;;;;;;;3.72;2.25;;;16.50;96.70;;;;;;4864353;29;20056;-75
2022/11/10 02:13:58;;;;;;;3.83;2.33;;;16.50;96.70;;;;;;4868559;29;20055;-75
2022/11/10 02:16:44;;;;;;;4.50;2.13;;;16.50;96.70;;;;;;4862742;29;20060;-75
2022/11/10 02:19:39;;;;;;;3.55;1.92;;;16.50;96.70;;;;;;4869812;29;20059;-75
2022/11/10 02:22:27;;;;;;;3.78;2.40;;;16.50;96.70;;;;;;4862806;29;20052;-75
2022/11/10 02:25:18;;;;;;;4.35;2.17;;;16.40;96.70;;;;;;4859098;29;20064;-75
2022/11/10 02:28:04;;;;;;;4.65;2.88;;;16.40;96.70;;;;;;4875833;29;20101;-74
2022/11/10 02:30:51;;;;;;;4.90;2.28;;;16.40;96.70;;;;;;4871460;29;20108;-75
2022/11/10 02:33:38;;;;;;;4.95;2.28;;;16.40;96.70;;;;;;4866172;29;20060;-75
2022/11/10 02:36:24;;;;;;;4.65;2.80;;;16.40;96.70;;;;;;4869980;29;20512;-75
2022/11/10 02:39:12;;;;;;;4.07;2.72;;;16.40;96.70;;;;;;4875017;29;20084;-75
2022/11/10 02:41:58;;;;;;;4.72;2.88;;;16.40;96.70;;;;;;4861663;29;20422;-75
2022/11/10 02:44:46;;;;;;;4.50;2.53;;;16.40;96.70;;;;;;4877625;29;20177;-74
2022/11/10 02:47:32;;;;;;;7.82;3.17;;;16.40;96.70;;;;;;4853625;29;20064;-75
2022/11/10 02:50:19;;;;;;;4.05;2.63;;;16.40;96.70;;;;;;4876519;29;20052;-75
2022/11/10 02:53:06;;;;;;;5.07;2.83;;;16.30;96.70;;;;;;4866922;29;20196;-75
2022/11/10 02:55:54;;;;;;;6.03;2.92;;;16.30;96.70;;;;;;4872542;29;20060;-75
2022/11/10 02:58:41;;;;;;;6.13;3.10;;;16.30;96.70;;;;;;4861657;29;20072;-75
2022/11/10 03:01:27;;;;;;;5.40;2.97;;;16.30;96.70;;;;;;4880116;29;20056;-74
2022/11/10 03:04:14;;;;;;;3.58;2.67;;;16.30;96.70;;;;;;4870590;29;20064;-75
2022/11/10 03:07:00;;;;;;;4.15;2.75;;;16.20;96.70;;;;;;4868332;29;20084;-75
2022/11/10 03:09:47;;;;;;;;;;;16.10;96.70;;;;;;4878740;29;20063;-75
2022/11/10 03:12:35;;;;;;;4.80;2.97;;;16.10;96.70;;;;;;4874167;29;20010;-75
2022/11/10 03:15:22;;;;;;;3.22;2.78;;;16.00;96.70;;;;;;4873478;29;20694;-75
2022/11/10 03:18:09;;;;;;;5.80;2.92;;;16.00;96.70;;;;;;4876361;29;20585;-75
2022/11/10 03:20:55;;;;;;;3.88;2.65;;;16.00;96.70;;;;;;4856645;29;20172;-75
2022/11/10 03:23:42;;;;;;;5.45;2.90;;;16.00;96.70;;;;;;4882868;29;20104;-74
2022/11/10 03:26:28;;;;;;;5.10;2.90;;;16.00;96.70;;;;;;4872407;29;20092;-75
2022/11/10 03:29:16;;;;;;;4.32;2.95;;;15.90;96.70;;;;;;4869979;29;20401;-75
2022/11/10 03:32:03;;;;;;;4.22;2.45;;;15.80;96.70;;;;;;4876119;29;20541;-75
2022/11/10 03:34:49;;;;;;;5.80;2.83;;;15.70;96.70;;;;;;4870294;29;20125;-75
2022/11/10 03:37:36;;;;;;;3.47;2.70;;;15.70;96.70;;;;;;4860532;29;20132;-74
2022/11/10 03:40:22;;;;;;;2.92;2.10;;;15.70;96.70;;;;;;4870693;29;20418;-74
2022/11/10 03:43:11;;;;;;;6.10;2.40;;;15.70;96.70;;;;;;4875198;29;20100;-74
2022/11/10 03:46:04;;;;;;;3.70;2.50;;;15.70;96.70;;;;;;4858768;29;20055;-74
2022/11/10 03:48:50;;;;;;;3.97;2.20;;;15.70;96.70;;;;;;4881108;29;20072;-74
2022/11/10 03:51:39;;;;;;;3.38;2.00;;;15.70;96.70;;;;;;4876811;29;20064;-75
2022/11/10 03:54:26;;;;;;;3.95;2.10;;;15.70;96.70;;;;;;4872358;29;20771;-74
2022/11/10 03:57:13;;;;;;;2.78;1.92;;;15.80;96.70;;;;;;4868247;29;20168;-75
2022/11/10 03:59:59;;;;;;;3.90;2.15;;;15.80;96.70;;;;;;4870499;29;20156;-74
2022/11/10 04:02:47;;;;;;;4.90;2.05;;;15.80;96.70;;;;;;4865299;29;20063;-74
2022/11/10 04:18:19;;;;;;;2.67;1.85;;;15.90;96.70;;;;;;4872357;29;20144;-74
2022/11/10 04:21:02;;;;;;;4.07;2.05;;;15.90;96.70;;;;;;4868914;29;20056;-74
2022/11/10 04:23:49;;;;;;;6.38;2.63;;;15.90;96.70;;;;;;4869773;29;20081;-75
2022/11/10 04:26:39;;;;;;;2.75;1.75;;;15.90;96.70;;;;;;4876754;29;20056;-74
2022/11/10 04:29:26;;;;;;;3.55;1.70;;;15.80;96.70;;;;;;4869801;29;20063;-74
2022/11/10 04:32:12;;;;;;;4.25;2.38;;;15.80;96.70;;;;;;4861860;29;20521;-74
2022/11/10 04:35:00;;;;;;;4.03;2.22;;;15.80;96.70;;;;;;4871895;29;20055;-74
2022/11/10 04:37:47;;;;;;;4.63;2.60;;;15.80;96.70;;;;;;4865229;29;20056;-75
2022/11/10 04:40:33;;;;;;;5.50;2.92;;;15.70;96.70;;;;;;4874678;29;20550;-74
2022/11/10 04:43:20;;;;;;;4.25;2.97;;;15.70;96.70;;;;;;4863992;29;20420;-74
2022/11/10 04:46:13;;;;;;;4.95;2.90;;;15.70;96.70;;;;;;4878335;29;20543;-74
2022/11/10 04:49:00;;;;;;;3.55;2.67;;;15.70;96.70;;;;;;4857048;29;20056;-74
2022/11/10 04:51:48;;;;;;;4.47;2.50;;;15.70;96.70;;;;;;4869729;29;20060;-74
2022/11/10 04:54:35;;;;;;;3.53;2.58;;;15.70;96.70;;;;;;4869147;29;20656;-74
2022/11/10 04:57:22;;;;;;;5.13;2.72;;;15.70;96.70;;;;;;4867582;29;20144;-74
2022/11/10 05:00:09;;;;;;;4.45;2.38;;;15.70;96.70;;;;;;4876426;29;20533;-75
2022/11/10 05:02:58;;;;;;;4.22;2.33;;;15.70;96.70;;;;;;4867587;29;20515;-74
2022/11/10 05:05:45;;;;;;;3.38;2.25;;;15.70;96.70;;;;;;4871211;29;20683;-73
2022/11/10 05:08:33;;;;;;;4.53;2.60;;;15.70;96.70;;;;;;4857645;29;20129;-73
2022/11/10 05:11:19;;;;;;;3.38;2.35;;;15.70;96.70;;;;;;4869642;29;21016;-73
2022/11/10 05:14:06;;;;;;;8.27;3.38;;;15.70;96.70;;;;;;4867531;29;20467;-73
2022/11/10 05:16:52;;;;;;;4.70;2.47;;;15.70;96.70;;;;;;4867850;29;20056;-73
2022/11/10 05:19:39;;;;;;;4.07;2.03;;;15.70;96.70;;;;;;4871671;29;20197;-73
2022/11/10 05:22:25;;;;;;;2.57;2.20;;;15.70;96.70;;;;;;4855195;29;20559;-74
2022/11/10 05:25:13;;;;;;;3.17;2.47;;;15.70;96.70;;;;;;4855319;29;20075;-73
2022/11/10 05:28:00;;;;;;;3.58;2.58;;;15.70;96.70;;;;;;4874370;29;20189;-73
2022/11/10 05:30:46;;;;;;;3.63;2.47;;;15.70;96.70;;;;;;4872806;29;20136;-73
2022/11/10 05:33:33;;;;;;;3.92;2.78;;;15.70;96.70;;;;;;4874074;29;20570;-74
2022/11/10 05:36:20;;;;;;;7.72;2.85;;;15.80;96.70;;;;;;4853911;29;20415;-74
2022/11/10 05:39:07;;;;;;;3.38;2.30;;;15.80;96.70;;;;;;4852055;29;20048;-73
2022/11/10 05:41:55;;;;;;;3.03;2.45;;;15.80;96.70;;;;;;4865259;29;20063;-73
2022/11/10 05:44:41;;;;;;;6.20;3.47;;;15.80;96.70;;;;;;4849166;29;20096;-74
2022/11/10 05:47:28;;;;;;;4.60;3.13;;;15.80;96.70;;;;;;4852283;29;20064;-73
2022/11/10 05:50:15;;;;;;;4.07;2.78;;;15.70;96.70;;;;;;4854072;29;20132;-74
2022/11/10 05:53:02;;;;;;;5.63;3.05;;;15.70;96.70;;;;;;4863430;29;20083;-73
2022/11/10 05:55:49;;;;;;;4.85;2.40;;;15.70;96.70;;;;;;4863974;29;20056;-73
2022/11/10 05:58:37;;;;;;;4.68;2.85;;;15.80;96.70;;;;;;4870120;29;20060;-73
2022/11/10 06:01:23;;;;;;;6.97;3.35;;;15.80;96.70;;;;;;4852329;29;20112;-73
2022/11/10 06:04:10;;;;;;;6.43;4.15;;;15.70;96.70;;;;;;4856347;29;20091;-73
2022/11/10 06:06:57;;;;;;;5.80;3.10;;;15.70;96.70;;;;;;4876839;29;20060;-73
2022/11/10 06:09:44;;;;;;;;;;;15.80;96.70;;;;;;4864438;29;20064;-73
2022/11/10 06:12:31;;;;;;;5.13;2.67;;;15.80;96.70;;;;;;4858692;29;19953;-74
2022/11/10 06:15:19;;;;;;;4.23;2.83;;;15.80;96.70;;;;;;4848910;29;20055;-74
2022/11/10 06:18:06;;;;;;;4.50;3.05;;;15.80;96.70;;;;;;4870589;29;20295;-73
2022/11/10 06:20:52;;;;;;;4.80;2.65;;;15.80;96.70;;;;;;4844782;29;20197;-73
2022/11/10 06:23:39;;;;;;;3.45;2.70;;;15.80;96.70;;;;;;4869556;29;20916;-74
2022/11/10 06:26:25;;;;;;;3.90;2.60;;;15.80;96.70;;;;;;4853174;29;20133;-73
2022/11/10 06:29:12;;;;;;;3.58;2.30;;;15.80;96.70;;;;;;4867914;29;20456;-73
2022/11/10 06:32:00;;;;;;;3.65;2.55;;;15.80;96.70;;;;;;4875118;29;20055;-73
2022/11/10 06:34:47;;;;;;;3.25;2.35;;;15.80;96.70;;;;;;4863767;29;20172;-73
2022/11/10 06:37:34;;;;;;;3.63;2.60;;;15.80;96.70;;;;;;4868986;29;20232;-73
2022/11/10 06:40:21;;;;;;;3.50;2.63;;;15.80;96.70;;;;;;4849630;29;20059;-73
2022/11/10 06:43:07;;;;;;;3.63;2.70;;;15.80;96.70;;;;;;4867872;29;20051;-73
2022/11/10 06:45:54;;;;;;;4.57;2.22;;;15.80;96.70;;;;;;4856806;29;20067;-73
2022/11/10 06:48:42;;;;;;;2.95;2.47;;;15.80;96.70;;;;;;4855498;29;20060;-73
2022/11/10 06:51:28;;;;;;;5.32;2.58;;;15.80;96.70;;;;;;4858107;29;20060;-73
2022/11/10 06:54:14;;;;;;;4.90;2.75;;;15.90;96.70;;;;;;4865009;29;20093;-74
2022/11/10 06:57:01;;;;;;;4.07;2.73;;;15.90;96.70;;;;;;4868353;29;20056;-73
2022/11/10 06:59:47;;;;;;;4.63;2.60;;;15.90;96.70;;;;;;4853335;29;20132;-73
2022/11/10 07:02:33;;;;;;;4.05;3.05;;;15.90;96.70;;;;;;4855366;29;20113;-74
2022/11/10 07:05:21;;;;;;;4.10;2.50;;;15.90;96.70;;;;;;4860457;29;20059;-74
2022/11/10 07:08:12;;;;;;;3.90;2.67;;;15.90;96.70;;;;;;4855360;29;20060;-73
2022/11/10 07:10:58;;;;;;;3.53;2.63;;;15.90;96.70;;;;;;4855973;29;20132;-74
2022/11/10 07:13:45;;;;;;;5.43;3.28;;;15.90;96.70;;;;;;4876034;29;20068;-73
2022/11/10 07:16:31;;;;;;;4.90;2.70;;;15.90;96.70;;;;;;4873908;29;20089;-74
2022/11/10 07:19:18;;;;;;;4.80;2.60;;;15.90;96.70;;;;;;4877070;29;20063;-76
2022/11/10 07:22:06;;;;;;;3.83;2.80;;;15.90;96.70;;;;;;4851159;29;20113;-74
2022/11/10 07:24:56;;;;;;;3.67;2.70;;;15.90;96.70;;;;;;4856528;29;20068;-73
2022/11/10 07:27:42;;;;;;;4.43;2.63;;;15.90;96.70;;;;;;4874063;29;20998;-73
2022/11/10 07:30:31;;;;;;;3.50;2.67;;;15.90;96.70;;;;;;4878838;29;20068;-73
2022/11/10 07:33:17;;;;;;;3.90;2.72;;;15.90;96.70;;;;;;4872713;29;20161;-74
2022/11/10 07:36:05;;;;;;;4.77;3.03;;;16.00;96.70;;;;;;4851857;29;20108;-73
2022/11/10 07:38:54;;;;;;;5.45;2.83;;;16.00;96.70;;;;;;4862167;29;20051;-73
2022/11/10 07:41:40;;;;;;;3.13;2.60;;;16.00;96.70;;;;;;4872806;29;20056;-73
2022/11/10 07:44:27;;;;;;;4.20;2.78;;;16.00;96.70;;;;;;4871924;29;20121;-73
2022/11/10 07:47:13;;;;;;;4.72;3.13;;;16.00;96.70;;;;;;4870893;29;20092;-73
2022/11/10 07:50:00;;;;;;;3.90;2.97;;;16.00;96.70;;;;;;4858261;29;20068;-73
2022/11/10 07:52:46;;;;;;;4.82;3.70;;;16.00;96.70;;;;;;4867668;29;20100;-73
2022/11/10 07:55:36;;;;;;;3.65;2.92;;;16.00;96.70;;;;;;4868557;29;20064;-73
2022/11/10 07:58:23;;;;;;;4.15;3.22;;;16.00;96.70;;;;;;4862759;29;20535;-73
2022/11/10 08:01:10;;;;;;;5.38;3.53;;;16.00;96.70;;;;;;4873406;29;20705;-74
2022/11/10 08:03:56;;;;;;;7.45;3.65;;;16.00;96.70;;;;;;4865606;29;20202;-73
2022/11/10 08:06:42;;;;;;;6.55;3.67;;;16.00;96.70;;;;;;4853139;29;20056;-73
2022/11/10 08:09:29;;;;;;;4.95;3.75;;;16.00;96.70;;;;;;4871263;29;20067;-74
2022/11/10 08:12:17;;;;;;;5.00;3.67;;;16.00;96.70;;;;;;4857257;29;20059;-73
2022/11/10 08:15:03;;;;;;;6.25;3.53;;;16.00;96.70;;;;;;4870059;29;20185;-73
2022/11/10 08:17:50;;;;;;;4.95;3.70;;;16.00;96.70;;;;;;4857374;29;20108;-73
2022/11/10 08:20:36;;;;;;;6.00;4.25;;;16.00;96.70;;;;;;4870197;29;20060;-73
2022/11/10 08:23:23;;;;;;;5.25;4.50;;;16.00;96.70;;;;;;4856265;29;20068;-73
2022/11/10 08:26:10;;;;;;;;;;;16.00;96.70;;;;;;4880657;29;20059;-73
2022/11/10 08:28:57;;;;;;;6.82;4.70;;;16.00;96.70;;;;;;4863977;29;19938;-73
2022/11/10 08:31:44;;;;;;;8.10;4.88;;;16.00;96.70;;;;;;4878268;29;20714;-73
2022/11/10 08:34:30;;;;;;;6.63;4.95;;;16.00;96.70;;;;;;4868159;29;20551;-74
2022/11/10 08:37:17;;;;;;;6.60;5.07;;;16.00;96.70;;;;;;4863553;29;20068;-72
2022/11/10 08:40:04;;;;;;;9.48;4.57;;;16.00;96.70;;;;;;4861736;29;20425;-74
2022/11/10 08:42:58;;;;;;;7.30;5.32;;;16.00;96.70;;;;;;4872377;29;20059;-73
2022/11/10 08:45:46;;;;;;;9.07;5.40;;;16.00;96.70;;;;;;4859525;29;20063;-72
2022/11/10 08:48:32;;;;;;;6.85;4.75;;;16.10;96.70;;;;;;4869163;29;20060;-74
2022/11/10 08:51:20;;;;;;;5.72;4.55;;;16.10;96.70;;;;;;4875192;29;20055;-73
2022/11/10 08:54:06;;;;;;;10.38;4.65;;;16.10;96.70;;;;;;4863038;29;20514;-73
2022/11/10 08:56:53;;;;;;;6.15;4.93;;;16.10;96.70;;;;;;4862414;29;20127;-74
2022/11/10 08:59:39;;;;;;;6.83;4.97;;;16.20;96.70;;;;;;4853509;29;20064;-73
2022/11/10 09:02:27;;;;;;;7.25;4.97;;;16.20;96.70;;;;;;4870487;29;20132;-73
2022/11/10 09:05:14;;;;;;;5.30;4.45;;;16.30;96.70;;;;;;4868974;29;20144;-73
2022/11/10 09:08:01;;;;;;;5.53;4.57;;;16.30;96.70;;;;;;4867696;29;20172;-73
2022/11/10 09:10:49;;;;;;;;;;;16.30;96.70;;;;;;4881129;29;20095;-73
2022/11/10 09:13:35;;;;;;;5.88;3.85;;;16.30;96.70;;;;;;4860910;29;19983;-73
2022/11/10 09:16:21;;;;;;;8.15;5.28;;;16.40;96.70;;;;;;4859051;29;20073;-73
2022/11/10 09:19:09;;;;;;;7.25;5.63;;;16.40;96.70;;;;;;4874286;29;20411;-73
2022/11/10 09:22:01;;;;;;;6.22;5.15;;;16.40;96.70;;;;;;4868647;29;20060;-73
2022/11/10 09:24:48;;;;;;;7.53;6.40;;;16.40;96.70;;;;;;4869815;29;20075;-73
2022/11/10 09:27:35;;;;;;;9.65;8.40;;;16.40;96.70;;;;;;4867440;29;20056;-72
2022/11/10 09:30:22;;;;;;;9.10;8.18;;;16.40;96.70;;;;;;4863825;29;20064;-72
2022/11/10 09:33:08;;;;;;;11.93;8.65;;;16.40;96.70;;;;;;4872251;29;20057;-72
2022/11/10 09:36:00;;;;;;;11.05;8.75;;;16.40;96.70;;;;;;4868147;29;20068;-73
2022/11/10 09:38:47;;;;;;;12.57;8.40;;;16.40;96.70;;;;;;4871018;29;20055;-73
2022/11/10 09:41:38;;;;;;;12.00;8.32;;;16.40;96.70;;;;;;4847748;29;21511;-73
2022/11/10 09:44:27;;;;;;;11.82;9.07;;;16.40;96.70;;;;;;4869586;29;20119;-73
2022/11/10 09:47:19;;;;;;;15.07;9.60;;;16.40;96.70;;;;;;4861610;29;20077;-72
2022/11/10 09:50:33;;;;;;;9.98;8.25;;;16.30;96.70;;;;;;4869161;29;20092;-73
2022/11/10 09:53:24;;;;;;;7.95;6.85;;;16.30;96.70;;;;;;4869899;29;20582;-73
2022/11/10 09:56:17;;;;;;;8.75;7.18;;;16.30;96.70;;;;;;4869391;29;20718;-73
2022/11/10 09:59:13;;;;;;;9.38;6.43;;;16.30;96.70;;;;;;4858534;29;20060;-73
2022/11/10 10:02:02;;;;;;;9.65;6.47;;;16.40;96.70;;;;;;4872147;29;20059;-73
2022/11/10 10:05:05;;;;;;;9.90;6.45;;;16.40;96.70;;;;;;4855067;29;20060;-73
2022/11/10 10:07:59;;;;;;;8.10;6.32;;;16.40;96.70;;;;;;4855920;29;20056;-73
2022/11/10 10:10:50;;;;;;;7.07;6.13;;;16.40;96.70;;;;;;4870286;29;20128;-72
2022/11/10 10:13:58;;;;;;;9.68;6.95;;;16.40;96.70;;;;;;4858067;29;20743;-73
2022/11/10 10:16:53;;;;;;;8.95;6.05;;;16.40;96.70;;;;;;4869840;29;20229;-73
2022/11/10 10:19:48;;;;;;;9.75;6.50;;;16.40;96.70;;;;;;4867402;29;20068;-73
2022/11/10 10:22:51;;;;;;;6.07;5.32;;;16.40;96.70;;;;;;4859084;29;20096;-74
2022/11/10 10:25:40;;;;;;;6.75;6.00;;;16.40;96.70;;;;;;4873021;29;20063;-73
2022/11/10 10:28:32;;;;;;;6.35;5.28;;;16.40;96.70;;;;;;4873856;29;20095;-73
2022/11/10 10:31:21;;;;;;;7.57;6.20;;;16.40;96.70;;;;;;4853646;29;20089;-73
2022/11/10 10:34:12;;;;;;;6.85;5.85;;;16.40;96.70;;;;;;4865680;29;20064;-73
2022/11/10 10:36:58;;;;;;;9.07;6.35;;;16.40;96.70;;;;;;4875442;29;20060;-73
2022/11/10 10:39:48;;;;;;;8.30;6.03;;;16.40;96.70;;;;;;4867087;29;20196;-73
2022/11/10 10:42:36;;;;;;;7.00;5.75;;;16.40;96.70;;;;;;4864239;29;20060;-73
2022/11/10 10:45:25;;;;;;;8.88;5.50;;;16.40;96.70;;;;;;4869655;29;20529;-74
2022/11/10 10:48:31;;;;;;;6.07;5.40;;;16.40;96.70;;;;;;4860547;29;20065;-74
2022/11/10 10:51:28;;;;;;;8.25;5.72;;;16.40;96.70;;;;;;4876823;29;20059;-74
2022/11/10 10:54:26;;;;;;;7.60;6.20;;;16.50;96.70;;;;;;4870639;29;20079;-73
2022/11/10 10:57:19;;;;;;;;;;;16.50;96.70;;;;;;4864201;29;20624;-73
2022/11/10 11:00:17;;;;;;;9.88;6.78;;;16.50;96.70;;;;;;4861274;29;20369;-74
2022/11/10 11:03:11;;;;;;;7.35;6.07;;;16.50;96.70;;;;;;4865347;29;20706;-73
2022/11/10 11:06:04;;;;;;;6.40;5.80;;;16.50;96.70;;;;;;4869069;29;20144;-74
2022/11/10 11:09:14;;;;;;;8.00;6.90;;;16.50;96.70;;;;;;4867386;29;20625;-73
2022/11/10 11:12:03;;;;;;;7.05;6.35;;;16.50;96.70;;;;;;4871743;29;20526;-73
2022/11/10 11:14:49;;;;;;;9.02;7.65;;;16.50;96.70;;;;;;4865014;29;20056;-73
2022/11/10 11:17:36;;;;;;;8.73;6.95;;;16.50;96.70;;;;;;4871862;29;20240;-74
2022/11/10 11:20:34;;;;;;;9.98;6.65;;;16.50;96.70;;;;;;4862456;29;20071;-72
2022/11/10 11:23:47;;;;;;;6.30;5.65;;;16.60;96.70;;;;;;4870045;29;20068;-73
2022/11/10 11:26:43;;;;;;;7.88;5.88;;;16.60;96.70;;;;;;4867413;29;20102;-73
2022/11/10 11:29:44;;;;;;;7.50;6.40;;;16.60;96.70;;;;;;4878408;29;20068;-73
2022/11/10 11:32:58;;;;;;;7.80;6.38;;;16.60;96.70;;;;;;4871700;29;20144;-73
2022/11/10 11:35:54;;;;;;;8.70;7.70;;;16.70;96.70;;;;;;4871409;29;20396;-73
2022/11/10 11:38:58;;;;;;;10.93;7.68;;;16.70;96.70;;;;;;4869683;29;20056;-72
2022/11/10 11:41:56;;;;;;;8.93;6.68;;;16.70;96.70;;;;;;4861577;29;20068;-73
2022/11/10 11:45:00;;;;;;;8.00;6.05;;;16.70;96.70;;;;;;4858423;29;20065;-74
2022/11/10 11:48:10;;;;;;;11.02;7.07;;;16.70;96.70;;;;;;4874688;29;20067;-74
2022/11/10 11:51:04;;;;;;;9.18;7.82;;;16.70;96.70;;;;;;4856773;29;20427;-73
2022/11/10 11:54:07;;;;;;;8.30;7.30;;;16.70;96.70;;;;;;4871012;29;20056;-72
2022/11/10 11:57:08;;;;;;;7.88;6.35;;;16.70;96.70;;;;;;4875375;29;20537;-73
2022/11/10 12:00:06;;;;;;;6.97;6.00;;;16.70;96.70;;;;;;4870555;29;20060;-73
2022/11/10 12:03:21;;;;;;;10.80;6.75;;;16.70;96.70;;;;;;4875345;29;20153;-73
2022/11/10 12:06:31;;;;;;;8.65;6.60;;;16.80;96.70;;;;;;4860473;29;20530;-73
2022/11/10 12:09:26;;;;;;;8.13;7.32;;;16.80;96.70;;;;;;4869712;29;20189;-73
2022/11/10 12:12:31;;;;;;;8.60;7.53;;;16.90;96.70;;;;;;4859427;29;20071;-73
2022/11/10 12:15:27;;;;;;;10.20;7.63;;;17.00;96.70;;;;;;4856971;29;20060;-72
2022/11/10 12:18:26;;;;;;;9.60;7.10;;;17.10;96.70;;;;;;4881270;29;20079;-72
2022/11/10 12:21:29;;;;;;;8.18;7.40;;;17.20;96.70;;;;;;4873057;29;20065;-73
2022/11/10 12:24:37;;;;;;;8.10;7.30;;;17.30;96.70;;;;;;4880584;29;20063;-72
2022/11/10 12:27:27;;;;;;;10.50;7.90;;;17.30;96.70;;;;;;4862270;29;20206;-70
2022/11/10 12:30:16;;;;;;;10.15;7.53;;;17.40;96.70;;;;;;4870012;29;20068;-72
2022/11/10 12:33:12;;;;;;;10.50;7.70;;;17.60;96.70;;;;;;4872217;29;20108;-73
2022/11/10 12:36:04;;;;;;;8.00;7.20;;;17.90;96.70;;;;;;4870525;29;20152;-73
2022/11/10 12:38:57;;;;;;;9.25;6.65;;;18.20;96.70;;;;;;4867529;29;20068;-73
2022/11/10 12:41:48;;;;;;;9.27;7.07;;;18.40;96.70;;;;;;4871313;29;20091;-73
2022/11/10 12:44:39;;;;;;;7.85;6.18;;;18.60;96.70;;;;;;4871823;29;20079;-73
2022/11/10 12:47:30;;;;;;;8.10;6.47;;;18.80;96.70;;;;;;4877104;29;20122;-74
2022/11/10 12:50:31;;;;;;;6.97;5.90;;;19.00;96.70;;;;;;4875166;29;20071;-72
2022/11/10 12:53:21;;;;;;;6.43;5.75;;;19.10;96.70;;;;;;4864725;29;20140;-73
2022/11/10 12:56:21;;;;;;;9.98;6.30;;;19.10;96.70;;;;;;4871314;29;20512;-74
2022/11/10 12:59:25;;;;;;;7.85;5.85;;;19.40;96.70;;;;;;4869066;29;20599;-74
2022/11/10 13:02:29;;;;;;;7.93;5.28;;;19.40;96.70;;;;;;4866269;29;20118;-74
2022/11/10 13:05:39;;;;;;;7.30;4.80;;;19.50;96.70;;;;;;4878847;29;20063;-75
2022/11/10 13:08:32;;;;;;;7.13;5.65;;;19.60;96.70;;;;;;4868595;29;20157;-73
2022/11/10 13:11:34;;;;;;;8.75;5.68;;;19.60;96.70;;;;;;4870750;29;20128;-73
2022/11/10 13:14:24;;;;;;;6.90;5.38;;;19.60;96.70;;;;;;4859851;29;20091;-74
2022/11/10 13:17:50;;;;;;;10.30;6.43;;;19.60;96.70;;;;;;4866362;29;20056;-73
2022/11/10 13:20:48;;;;;;;7.68;5.70;;;19.60;96.70;;;;;;4884199;29;20063;-74
2022/11/10 13:24:07;;;;;;;7.35;6.18;;;19.60;96.70;;;;;;4875447;29;20059;-74
2022/11/10 13:26:56;;;;;;;7.10;5.13;;;19.70;96.70;;;;;;4880995;29;20059;-75
2022/11/10 13:29:57;;;;;;;6.95;5.65;;;19.60;96.70;;;;;;4893914;29;20051;-74
2022/11/10 13:32:44;;;;;;;7.40;4.80;;;19.60;96.70;;;;;;4871205;29;20067;-74
2022/11/10 13:35:55;;;;;;;5.55;4.55;;;19.60;96.70;;;;;;4886583;29;20059;-75
2022/11/10 13:38:44;;;;;;;5.57;4.45;;;19.90;96.70;;;;;;4881426;29;20093;-74
2022/11/10 13:41:33;;;;;;;5.03;4.53;;;20.00;96.70;;;;;;4887784;29;20068;-74
2022/11/10 13:44:26;;;;;;;9.82;5.30;;;20.00;96.70;;;;;;4896726;29;20059;-73
2022/11/10 13:47:33;;;;;;;8.13;4.90;;;20.10;96.70;;;;;;4889397;29;20556;-74
2022/11/10 13:50:32;;;;;;;5.77;5.07;;;20.00;96.70;;;;;;4884021;29;20534;-75
2022/11/10 13:53:29;;;;;;;7.55;4.80;;;19.90;96.70;;;;;;4875694;29;20062;-74
2022/11/10 13:56:31;;;;;;;6.90;4.90;;;19.80;96.70;;;;;;4873389;29;20058;-75
2022/11/10 13:59:20;;;;;;;5.30;4.38;;;19.90;96.70;;;;;;4889352;29;20068;-74
2022/11/10 14:02:39;;;;;;;5.20;4.55;;;19.80;96.70;;;;;;4892479;29;20082;-74
2022/11/10 14:06:03;;;;;;;7.15;4.70;;;19.70;96.70;;;;;;4887984;29;20165;-76
2022/11/10 14:08:55;;;;;;;6.15;4.20;;;19.60;96.70;;;;;;4861266;29;20054;-74
2022/11/10 14:11:45;;;;;;;5.10;3.92;;;19.50;96.70;;;;;;4883085;29;20059;-74
2022/11/10 14:14:50;;;;;;;6.32;3.83;;;19.50;96.70;;;;;;4884366;29;20807;-73
2022/11/10 14:17:41;;;;;;;5.95;4.35;;;19.40;96.70;;;;;;4886305;29;20067;-74
2022/11/10 14:20:34;;;;;;;7.05;4.85;;;19.40;96.70;;;;;;4870497;29;20072;-74
2022/11/10 14:23:28;;;;;;;6.13;4.13;;;19.40;96.70;;;;;;4870264;29;20059;-74
2022/11/10 14:26:22;;;;;;;7.55;4.45;;;19.40;96.70;;;;;;4874119;29;20063;-73
2022/11/10 14:29:39;;;;;;;5.22;3.88;;;19.30;96.70;;;;;;4878948;29;20522;-74
2022/11/10 14:32:26;;;;;;;4.68;3.75;;;19.30;96.70;;;;;;4809056;29;20061;-73
2022/11/10 14:35:21;;;;;;;6.55;3.95;;;19.30;96.70;;;;;;4807577;29;20103;-74
2022/11/10 14:38:17;;;;;;;5.68;3.50;;;19.30;96.70;;;;;;4809729;29;20646;-74
2022/11/10 14:41:17;;;;;;;6.47;4.00;;;19.20;96.70;;;;;;4803428;29;20074;-74
2022/11/10 14:44:05;;;;;;;6.32;3.50;;;19.20;96.70;;;;;;4802631;29;20062;-74
2022/11/10 14:46:53;;;;;;;8.35;3.65;;;19.10;96.70;;;;;;4818231;29;20194;-74
2022/11/10 14:49:39;;;;;;;;;;;19.10;96.70;;;;;;4807612;29;20204;-74
2022/11/10 14:52:25;;;;;;;4.75;3.42;;;19.00;96.70;;;;;;4811912;29;19957;-74
2022/11/10 14:55:17;;;;;;;6.28;3.60;;;18.90;96.70;;;;;;4795992;29;20058;-74
2022/11/10 14:58:10;;;;;;;4.07;3.22;;;18.90;96.70;;;;;;4809145;29;20200;-74
2022/11/10 15:00:57;;;;;;;8.10;3.63;;;18.80;96.70;;;;;;4812229;29;20203;-74
2022/11/10 15:03:44;;;;;;;7.40;3.30;;;18.80;96.70;;;;;;4810494;29;20049;-73
2022/11/10 15:06:31;;;;;;;4.32;3.05;;;18.80;96.70;;;;;;4851713;29;20051;-74